Parma — V2OZ9 — position and weather

sailwx.info

Track history (hours):
 
Tides and Currents Weather Stations Pressure Air Temp Water Temp Dewpoint Dewpoint Depression Visibility Wind Speed Wind Dir Waves Ship Positions

Parma

Last reported at 2015-Aug-29 13:32 UTC. Time now 2015-Aug-30 20:02 UTC.
Position N 37°15' E 024°47'.

MMSI: 279073176.

Date/timePositionNaut miles runAvg speedWind from/ knotsBaromVisibWave heightAir tempDewpointWater temp
2015-Aug-29 13:32N 37°15' E 024°47'9 9.5
2015-Aug-29 12:33N 37°21' E 024°56'5 4.3
2015-Aug-29 11:31N 37°25' E 024°58'0 0.0
2015-Aug-29 10:31N 37°25' E 024°58'0 0.0
2015-Aug-29 09:34N 37°25' E 024°58'0 0.0
2015-Aug-29 08:34N 37°25' E 024°58'0 0.0
2015-Aug-29 07:31N 37°25' E 024°58'0 0.0
2015-Aug-29 06:25N 37°25' E 024°58'0 0.0
2015-Aug-29 05:31N 37°25' E 024°58'2 1.7
2015-Aug-29 04:33N 37°25' E 025°00'7 6.9
2015-Aug-29 03:33N 37°28' E 025°08'7 7.1
2015-Aug-29 02:34N 37°31' E 025°16'18 7.5
2015-Aug-29 00:14N 37°49' E 025°20'6 8.6
2015-Aug-28 23:34N 37°54' E 025°20'234 7.6
2015-Aug-27 16:33N 40°47' E 028°44'1110.1
2015-Aug-27 15:25N 40°49' E 028°59'910.7
2015-Aug-27 14:33N 40°51' E 029°11'1 1.0
2015-Aug-27 13:28N 40°52' E 029°12'0 0.0
2015-Aug-27 12:28N 40°52' E 029°12'0 0.0
2015-Aug-27 11:28N 40°52' E 029°12'0 0.0
2015-Aug-27 10:28N 40°52' E 029°12'0 0.0
2015-Aug-27 09:28N 40°52' E 029°12'0 0.0
2015-Aug-27 08:22N 40°52' E 029°12'0 0.0
2015-Aug-26 03:22N 40°52' E 029°12'0 0.0
2015-Aug-26 02:28N 40°52' E 029°12'0 0.0
2015-Aug-26 01:22N 40°52' E 029°12'0 0.0
2015-Aug-26 00:16N 40°52' E 029°12'0 0.0
2015-Aug-25 23:22N 40°52' E 029°12'0 0.1
2015-Aug-25 22:04N 40°52' E 029°12'0 0.0
2015-Aug-25 21:28N 40°52' E 029°12'0 0.0
2015-Aug-25 20:28N 40°52' E 029°12'0 0.0
2015-Aug-25 19:28N 40°52' E 029°12'0 0.0
2015-Aug-25 18:22N 40°52' E 029°12'0 0.0
2015-Aug-25 17:28N 40°52' E 029°12'0 0.0
2015-Aug-25 16:28N 40°52' E 029°12'0 0.0
2015-Aug-25 15:28N 40°52' E 029°12'1 1.6
2015-Aug-25 14:33N 40°51' E 029°11'5 5.4
2015-Aug-25 13:33N 40°50' E 029°04'15 1.6
2015-Aug-25 04:18N 40°44' E 028°46'4 4.9
2015-Aug-25 03:33N 40°45' E 028°51'5 5.1
2015-Aug-25 02:33N 40°45' E 028°57'6 5.1
2015-Aug-25 01:29N 40°45' E 029°05'4 4.8
2015-Aug-25 00:33N 40°45' E 029°11'5 4.9
2015-Aug-24 23:33N 40°45' E 029°17'9 0.4
2015-Aug-24 00:33N 40°46' E 029°29'2 0.2
2015-Aug-23 14:29N 40°46' E 029°27'0 0.0
2015-Aug-23 07:23N 40°46' E 029°27'0 0.0
2015-Aug-22 22:23N 40°46' E 029°27'0 0.0
2015-Aug-21 05:33N 40°46' E 029°27'5 4.9
2015-Aug-21 04:30N 40°43' E 029°21'8 8.0
2015-Aug-21 03:33N 40°43' E 029°11'8 8.1
2015-Aug-21 02:33N 40°43' E 028°60'9 8.5
2015-Aug-21 01:32N 40°44' E 028°48'  
Track history (hours):
 
Tides and Currents Weather Stations Pressure Air Temp Water Temp Dewpoint Dewpoint Depression Visibility Wind Speed Wind Dir Waves Ship Positions

Parma

Last reported at 2015-Aug-29 13:32 UTC. Time now 2015-Aug-30 20:02 UTC.
Position N 37°15' E 024°47'.

MMSI: 279073176.

Date/timePositionNaut miles runAvg speedWind from/ knotsBaromVisibWave heightAir tempDewpointWater temp
2015-Aug-29 13:32N 37°15' E 024°47'9 9.5
2015-Aug-29 12:33N 37°21' E 024°56'5 4.3
2015-Aug-29 11:31N 37°25' E 024°58'0 0.0
2015-Aug-29 10:31N 37°25' E 024°58'0 0.0
2015-Aug-29 09:34N 37°25' E 024°58'0 0.0
2015-Aug-29 08:34N 37°25' E 024°58'0 0.0
2015-Aug-29 07:31N 37°25' E 024°58'0 0.0
2015-Aug-29 06:25N 37°25' E 024°58'0 0.0
2015-Aug-29 05:31N 37°25' E 024°58'2 1.7
2015-Aug-29 04:33N 37°25' E 025°00'7 6.9
2015-Aug-29 03:33N 37°28' E 025°08'7 7.1
2015-Aug-29 02:34N 37°31' E 025°16'18 7.5
2015-Aug-29 00:14N 37°49' E 025°20'6 8.6
2015-Aug-28 23:34N 37°54' E 025°20'234 7.6
2015-Aug-27 16:33N 40°47' E 028°44'1110.1
2015-Aug-27 15:25N 40°49' E 028°59'910.7
2015-Aug-27 14:33N 40°51' E 029°11'1 1.0
2015-Aug-27 13:28N 40°52' E 029°12'0 0.0
2015-Aug-27 12:28N 40°52' E 029°12'0 0.0
2015-Aug-27 11:28N 40°52' E 029°12'0 0.0
2015-Aug-27 10:28N 40°52' E 029°12'0 0.0
2015-Aug-27 09:28N 40°52' E 029°12'0 0.0
2015-Aug-27 08:22N 40°52' E 029°12'0 0.0
2015-Aug-26 03:22N 40°52' E 029°12'0 0.0
2015-Aug-26 02:28N 40°52' E 029°12'0 0.0
2015-Aug-26 01:22N 40°52' E 029°12'0 0.0
2015-Aug-26 00:16N 40°52' E 029°12'0 0.0
2015-Aug-25 23:22N 40°52' E 029°12'0 0.1
2015-Aug-25 22:04N 40°52' E 029°12'0 0.0
2015-Aug-25 21:28N 40°52' E 029°12'0 0.0
2015-Aug-25 20:28N 40°52' E 029°12'0 0.0
2015-Aug-25 19:28N 40°52' E 029°12'0 0.0
2015-Aug-25 18:22N 40°52' E 029°12'0 0.0
2015-Aug-25 17:28N 40°52' E 029°12'0 0.0
2015-Aug-25 16:28N 40°52' E 029°12'0 0.0
2015-Aug-25 15:28N 40°52' E 029°12'1 1.6
2015-Aug-25 14:33N 40°51' E 029°11'5 5.4
2015-Aug-25 13:33N 40°50' E 029°04'15 1.6
2015-Aug-25 04:18N 40°44' E 028°46'4 4.9
2015-Aug-25 03:33N 40°45' E 028°51'5 5.1
2015-Aug-25 02:33N 40°45' E 028°57'6 5.1
2015-Aug-25 01:29N 40°45' E 029°05'4 4.8
2015-Aug-25 00:33N 40°45' E 029°11'5 4.9
2015-Aug-24 23:33N 40°45' E 029°17'9 0.4
2015-Aug-24 00:33N 40°46' E 029°29'2 0.2
2015-Aug-23 14:29N 40°46' E 029°27'0 0.0
2015-Aug-23 07:23N 40°46' E 029°27'0 0.0
2015-Aug-22 22:23N 40°46' E 029°27'0 0.0
2015-Aug-21 05:33N 40°46' E 029°27'5 4.9
2015-Aug-21 04:30N 40°43' E 029°21'8 8.0
2015-Aug-21 03:33N 40°43' E 029°11'8 8.1
2015-Aug-21 02:33N 40°43' E 028°60'9 8.5
2015-Aug-21 01:32N 40°44' E 028°48'  

Dump ship's entire track history